Airfield :
LOGIN :

Register | Disclaimer

   EN    FR    IT 

 










Legend :    VFR   Marginal VFR   IFR   Intensive IFR   Very Intensive IFR
Visi :
Ceiling :
>= 8 km
>= 3000ft
5 to 8 km
1000 to 3000 ft
1500m to 5 km
500 to 1000 ft
800 to 1500m
200 to 500 ft
< 800m
< 200 ft
Symbols :   Thunderstorms  Fog  Heavy snow  Heavy precipitations  Wind > 20 kt
SIGMETs :     Misc.  Thunderstorms  Icing  Turbulence  Mountain Waves  Volcanic Ashes







- Airport Elevation : 1234 ft
- IATA code : LUX


ELLX - Luxembourg Findel

CURRENT METAR :
  • 211420Z 28011KT 9999 FEW030 SCT035 13/05 Q1028 NOSIG

EXPIRED METARs :
  • 211350Z 26010KT 230V320 9999 FEW026 SCT032 12/05 Q1028 NOSIG
  • 211320Z 24011KT 9999 SCT026 12/06 Q1027 NOSIG
  • 211250Z 27010KT 230V290 9999 SCT030 13/05 Q1028 NOSIG
  • 211220Z 25006KT 170V300 9999 SCT024 12/06 Q1028 NOSIG
  • 211150Z 21006KT 160V250 9999 FEW020 12/06 Q1028 NOSIG

TAF TAF ELLX
Valid from the 21 at 12:00 until the 22 at 18:00 UTC


211100Z 2112/2218 21004KT 9999 SCT025
BECMG 2113/2115 30007KT
BECMG 2119/2121 7000 SCT015
BECMG 2121/2123 3500 BR SCT005 BKN009
BECMG 2207/2209 05008KT 9999 BKN012
TEMPO 2209/2212 SCT015
BECMG 2213/2215 SCT025
ATIS : +352 4798 27300
Met : +352 4798 27010 / 27050
No reported NOTAMs for that airfield.



MET'MAP, your aeronautical weather chart ! - Copyright ORBIFLY December 2007 - Disclaimer

ORBIFLY MET'MAP TEAM :

Programming & Development : Alexandra Zaïnal
Concept & Development : Baudouin d'Aumeries
Co-Development & Prog : Marc-Olivier Méhu
Technical & hardware support : Manuel Goepfert

Contact : metmap@orbifly.com




SOURCES & CREDITS :

   NOAA